Shenley AV, United Kingdom
Current Conditions -  °F | °C
As of 2:50 PM on Wednesday 26 Nov 2014 (Local Time) from EGWU Reporting Station
Haze Haze  
Wind Chill: 48°   Ceiling: 500
Heat Index: 48°   Visibility: 1.8mi
Dew Point: 48°   Wind: 2mph
Humidity: 100%   Direction: 70°ENE
Pressure: 29.8"   Gusts: NA
Location:  51.69°N, 0.28°W
Report Text: EGWU 261450Z 07002KT 3000 BR SCT003 OVC005 09/09 Q1009 TEMPO 2000 -DZ BKN002
Loading
Personal Weather Stations






























Interactive Weather Map New forecast layout! Learn more

10-Day Weather Forecast

Advertisements
Track Severe Weather on mobile